map of NEL home
NEL - Airport
Location
City:  Lakehurst, New Jersey, United States
Name:Lakehurst Maxfield Field
ICAO:KNEL
IATA:NEL
FAA LID:NEL

Details
Type:Airport (Airfield)
Use:Military
Latitude:4002'09"N (40.035781)
Longitude:7421'05"W (-74.351369)
Datum:WGS 1984
Elevation:100 ft (30 m)
Variation:12.45W (WMM2015v2 magnetic declination)
0.04 annual change
Runways:3
Longest:5002 × 150 ft (1525 × 45.5 m), paved

Time
Time Zone:UTC-5 (DST-4)
Local Time:

Weather
METAR:KNEL 041400Z 00000KT 10SM FEW002 02/02 A3009 RMK AO2 SLPNO T00170017 PNO $

Related Locations
Nearby:
Farthest:YAUG: 11783 mi / 18963 km
Augusta [Augusta Airport], WA, AU

Find:

   beyond  
but within

Other Information
Maps:
NOTAMs:
Links:
Sources:

  
  • flag of United States
  • flag of New Jersey
  

Airport Diagram

Airport diagram for NEL

Airport diagram PDF from FAA

Sectional Chart

Flight Planning
at skyvector.com

Satellite Image

Google Maps Satellite view

 

Copyright © 2004-2019 Karl L. Swartz. All rights reserved.
The Great Circle Mapper name and logo are trademarks of the Great Circle Mapper.
All other trademarks mentioned herein belong to their respective owners.
Please see credits for attibutions and further copyright information.

  Follow gcmap on Facebook Follow gcmap on Twitter GCmap on LinkedIn

hCard Microformat

Geo Microformat